Time;durP1;ratioP1;P1;durP2;ratioP2;P2;SDS_P1;SDS_P2;PMS_P1;PMS_P2;Temp;Humidity;BMP_temperature;BMP_pressure;BME280_temperature;BME280_humidity;BME280_pressure;Samples;Min_cycle;Max_cycle;Signal;HPM_P1;HPM_P2
2023/06/08 00:00:16;;;;;;;7.03;6.10;;;20.30;60.10;;;;;;5032665;28;20077;-54
2023/06/08 00:02:46;;;;;;;7.63;6.85;;;20.30;59.90;;;;;;5027451;28;20499;-55
2023/06/08 00:05:17;;;;;;;7.03;5.45;;;20.40;59.90;;;;;;5018011;28;20081;-51
2023/06/08 00:07:46;;;;;;;7.80;6.30;;;20.40;59.50;;;;;;5032810;28;20049;-51
2023/06/08 00:10:14;;;;;;;11.48;5.93;;;20.40;59.60;;;;;;5032470;28;20046;-52
2023/06/08 00:12:42;;;;;;;8.40;5.72;;;20.30;59.60;;;;;;5019137;28;20710;-55
2023/06/08 00:15:13;;;;;;;8.57;6.18;;;20.30;59.00;;;;;;5027029;28;20037;-53
2023/06/08 00:17:40;;;;;;;9.10;5.80;;;20.30;59.10;;;;;;5033323;28;20108;-56
2023/06/08 00:20:11;;;;;;;6.50;5.80;;;20.30;58.80;;;;;;5032773;28;20136;-52
2023/06/08 00:22:37;;;;;;;9.30;5.88;;;20.30;58.60;;;;;;5014994;28;20493;-54
2023/06/08 00:25:08;;;;;;;9.65;5.55;;;20.30;58.90;;;;;;5005050;28;20537;-55
2023/06/08 00:27:40;;;;;;;8.00;5.88;;;20.20;58.90;;;;;;5027715;28;20501;-54
2023/06/08 00:30:08;;;;;;;9.68;6.30;;;20.20;58.90;;;;;;5014952;28;20053;-54
2023/06/08 00:32:35;;;;;;;10.65;6.05;;;20.20;58.70;;;;;;5002913;28;20042;-55
2023/06/08 00:35:08;;;;;;;12.90;6.03;;;20.20;58.60;;;;;;5006744;28;20060;-51
2023/06/08 00:37:39;;;;;;;9.27;5.78;;;20.10;58.60;;;;;;5003088;28;20046;-54
2023/06/08 00:40:07;;;;;;;10.05;5.72;;;20.10;58.90;;;;;;5022341;28;20116;-54
2023/06/08 00:42:37;;;;;;;8.07;5.68;;;20.10;58.70;;;;;;5026851;28;20046;-55
2023/06/08 00:45:09;;;;;;;7.45;5.90;;;20.10;58.90;;;;;;5013552;28;20052;-53
2023/06/08 00:47:39;;;;;;;7.55;5.55;;;20.00;59.00;;;;;;5014529;28;20492;-54
2023/06/08 00:50:13;;;;;;;7.60;5.90;;;20.00;58.90;;;;;;5014500;28;20547;-54
2023/06/08 00:52:40;;;;;;;10.60;6.65;;;20.00;58.70;;;;;;5012967;28;20405;-53
2023/06/08 00:55:08;;;;;;;9.70;5.95;;;20.00;59.00;;;;;;4996348;28;20104;-54
2023/06/08 00:57:39;;;;;;;8.95;6.20;;;19.90;59.10;;;;;;5009462;28;20045;-55
2023/06/08 01:00:08;;;;;;;8.43;6.57;;;19.90;59.20;;;;;;5013917;28;20042;-54
2023/06/08 01:02:35;;;;;;;8.85;5.88;;;19.90;58.90;;;;;;5021603;28;20038;-54
2023/06/08 01:05:03;;;;;;;7.45;6.60;;;19.80;59.10;;;;;;5022416;28;20049;-51
2023/06/08 01:07:48;;;;;;;8.88;5.65;;;19.80;59.30;;;;;;5005286;28;20050;-55
2023/06/08 01:10:31;;;;;;;8.23;6.15;;;19.80;59.70;;;;;;5014461;28;20049;-54
2023/06/08 01:13:04;;;;;;;;;;;19.80;60.00;;;;;;5014281;28;20166;-54
2023/06/08 01:15:54;;;;;;;;;;;19.80;59.00;;;;;;5014443;28;19921;-50
2023/06/08 01:18:27;;;;;;;10.52;5.35;;;19.80;58.40;;;;;;5016027;28;19928;-54
2023/06/08 01:21:24;;;;;;;9.60;5.85;;;19.80;58.90;;;;;;4989746;28;20466;-50
2023/06/08 01:24:13;;;;;;;6.68;5.47;;;19.70;59.60;;;;;;5002024;28;20050;-54
2023/06/08 01:26:42;;;;;;;8.90;6.40;;;19.70;59.70;;;;;;4991170;28;20088;-52
2023/06/08 01:29:13;;;;;;;11.27;6.95;;;19.60;59.40;;;;;;4996794;28;20546;-54
2023/06/08 01:31:40;;;;;;;7.47;6.55;;;19.60;59.40;;;;;;5031337;28;20029;-51
2023/06/08 01:34:13;;;;;;;6.97;5.90;;;19.60;59.70;;;;;;5013814;28;20064;-54
2023/06/08 01:36:51;;;;;;;10.20;6.32;;;19.60;59.70;;;;;;5000443;28;20033;-55
2023/06/08 01:39:38;;;;;;;10.18;6.90;;;19.60;59.90;;;;;;5009641;28;20050;-52
2023/06/08 01:42:09;;;;;;;8.05;6.07;;;19.60;60.40;;;;;;5025419;28;20042;-52
2023/06/08 01:45:03;;;;;;;10.65;5.93;;;19.60;60.10;;;;;;5007701;28;20136;-54
2023/06/08 01:47:36;;;;;;;10.45;6.72;;;19.50;60.30;;;;;;4985424;28;20045;-50
2023/06/08 01:50:07;;;;;;;7.70;5.95;;;19.60;60.00;;;;;;5019953;28;20037;-54
2023/06/08 01:52:41;;;;;;;10.63;7.63;;;19.60;60.30;;;;;;5016180;28;20053;-54
2023/06/08 01:55:17;;;;;;;9.57;6.90;;;19.60;60.30;;;;;;4993482;28;20050;-54
2023/06/08 01:57:44;;;;;;;10.95;7.15;;;19.60;60.20;;;;;;5007556;28;20055;-55
2023/06/08 02:00:14;;;;;;;9.02;7.03;;;19.60;60.20;;;;;;5012821;28;20570;-53
2023/06/08 02:02:47;;;;;;;13.07;7.28;;;19.60;60.40;;;;;;5011927;28;20042;-52
2023/06/08 02:05:18;;;;;;;9.30;6.65;;;19.60;60.30;;;;;;5025839;22;20046;-45
2023/06/08 02:07:50;;;;;;;11.85;7.38;;;19.60;60.50;;;;;;5021105;28;20050;-45
2023/06/08 02:10:22;;;;;;;;;;;19.60;60.30;;;;;;5011274;28;20046;-44
2023/06/08 02:12:49;;;;;;;9.60;6.72;;;19.70;59.80;;;;;;4987965;28;19953;-44
2023/06/08 02:15:16;;;;;;;10.20;6.53;;;19.70;59.60;;;;;;4997291;28;20069;-45
2023/06/08 02:17:43;;;;;;;11.05;6.85;;;19.70;59.80;;;;;;5011045;28;20026;-45
2023/06/08 02:20:10;;;;;;;10.45;6.80;;;19.70;60.00;;;;;;5008722;28;20045;-44
2023/06/08 02:22:39;;;;;;;11.93;7.28;;;19.70;60.10;;;;;;4999256;28;20046;-44
2023/06/08 02:25:14;;;;;;;11.87;7.10;;;19.70;60.10;;;;;;5000432;28;20050;-45
2023/06/08 02:27:48;;;;;;;9.75;7.13;;;19.70;60.00;;;;;;5009773;28;20042;-44
2023/06/08 02:30:16;;;;;;;12.25;7.63;;;19.70;60.00;;;;;;5008628;28;20700;-45
2023/06/08 02:32:53;;;;;;;7.93;6.82;;;19.70;59.80;;;;;;5006383;28;20054;-46
2023/06/08 02:35:21;;;;;;;9.88;6.90;;;19.70;60.00;;;;;;4998134;28;20537;-46
2023/06/08 02:37:51;;;;;;;8.90;6.70;;;19.70;60.00;;;;;;5009725;28;20065;-46
2023/06/08 02:40:27;;;;;;;9.30;7.25;;;19.70;60.10;;;;;;5010550;28;20403;-45
2023/06/08 02:42:59;;;;;;;9.40;7.22;;;19.70;59.80;;;;;;5008734;28;20042;-45
2023/06/08 02:45:30;;;;;;;11.40;7.75;;;19.70;59.90;;;;;;5012364;28;20084;-46
2023/06/08 02:47:58;;;;;;;8.63;7.47;;;19.60;59.90;;;;;;5014362;28;20046;-44
2023/06/08 02:50:24;;;;;;;10.95;7.50;;;19.60;59.90;;;;;;5008934;28;20073;-44
2023/06/08 02:52:57;;;;;;;9.15;6.88;;;19.60;59.90;;;;;;5006669;28;20050;-47
2023/06/08 02:55:28;;;;;;;12.57;7.00;;;19.50;60.00;;;;;;5003120;28;20111;-48
2023/06/08 02:57:56;;;;;;;8.07;6.75;;;19.50;60.00;;;;;;5009809;28;20610;-48
2023/06/08 03:00:25;;;;;;;8.68;6.65;;;19.50;59.80;;;;;;5010611;28;20506;-45
2023/06/08 03:03:27;;;;;;;9.27;7.07;;;19.50;59.80;;;;;;4985243;28;20131;-48
2023/06/08 03:06:00;;;;;;;8.83;7.73;;;19.40;59.80;;;;;;5008743;28;20076;-45
2023/06/08 03:08:39;;;;;;;10.85;6.68;;;19.30;59.70;;;;;;5009179;28;20133;-48
2023/06/08 03:11:07;;;;;;;10.00;6.78;;;19.30;59.80;;;;;;5003222;28;20482;-44
2023/06/08 03:13:39;;;;;;;8.15;6.47;;;19.30;59.80;;;;;;5008398;28;20045;-45
2023/06/08 03:16:17;;;;;;;8.88;7.10;;;19.20;59.90;;;;;;5016428;28;20137;-45
2023/06/08 03:18:44;;;;;;;12.77;7.57;;;19.20;60.40;;;;;;5007577;28;20133;-49
2023/06/08 03:21:18;;;;;;;13.55;8.20;;;19.20;60.10;;;;;;5006680;28;20150;-44
2023/06/08 03:23:49;;;;;;;9.23;7.03;;;19.10;60.10;;;;;;5004130;28;20423;-45
2023/06/08 03:26:20;;;;;;;8.75;7.30;;;19.00;60.10;;;;;;5001385;28;20051;-46
2023/06/08 03:28:47;;;;;;;10.00;7.05;;;19.00;60.30;;;;;;5008923;28;20914;-46
2023/06/08 03:31:15;;;;;;;8.77;6.47;;;19.00;60.30;;;;;;5008303;28;20053;-49
2023/06/08 03:33:51;;;;;;;9.80;8.10;;;19.00;60.40;;;;;;5005785;28;20108;-47
2023/06/08 03:36:20;;;;;;;9.57;6.97;;;18.90;60.70;;;;;;5009584;28;20042;-46
2023/06/08 03:38:55;;;;;;;9.50;6.78;;;18.90;60.60;;;;;;5008634;28;20045;-45
2023/06/08 03:41:22;;;;;;;8.38;7.30;;;18.90;60.80;;;;;;5005798;28;20134;-45
2023/06/08 03:43:50;;;;;;;8.60;7.28;;;18.80;60.70;;;;;;5008511;28;20143;-47
2023/06/08 03:46:27;;;;;;;9.55;7.47;;;18.80;60.70;;;;;;5008106;28;20518;-49
2023/06/08 03:48:56;;;;;;;11.10;7.47;;;18.80;61.00;;;;;;5006967;28;20056;-46
2023/06/08 03:51:23;;;;;;;9.05;6.50;;;18.70;60.80;;;;;;4999873;28;20057;-48
2023/06/08 03:53:52;;;;;;;9.18;6.90;;;18.70;61.00;;;;;;5006331;28;20129;-46
2023/06/08 03:56:25;;;;;;;13.73;7.73;;;18.70;61.10;;;;;;5006981;28;20054;-49
2023/06/08 03:59:00;;;;;;;14.02;7.63;;;18.60;61.00;;;;;;5008406;28;20092;-46
2023/06/08 04:01:30;;;;;;;12.25;7.30;;;18.60;62.00;;;;;;5007987;28;20085;-49
2023/06/08 04:03:57;;;;;;;9.30;7.22;;;18.60;61.20;;;;;;5003738;28;20515;-49
2023/06/08 04:06:33;;;;;;;8.90;6.82;;;18.60;61.30;;;;;;4973083;28;1035073;-49
2023/06/08 04:09:03;;;;;;;7.97;6.65;;;18.60;61.40;;;;;;4994478;28;20054;-47
2023/06/08 04:11:35;;;;;;;10.77;7.40;;;18.60;61.50;;;;;;5011182;28;20450;-45
2023/06/08 04:14:04;;;;;;;8.45;7.50;;;18.60;61.60;;;;;;5012664;28;20560;-45
2023/06/08 04:16:33;;;;;;;11.50;6.82;;;18.60;61.50;;;;;;4996109;28;20038;-49
2023/06/08 04:19:07;;;;;;;9.68;7.10;;;18.60;61.70;;;;;;5014113;28;20065;-46
2023/06/08 04:21:39;;;;;;;10.23;7.32;;;18.50;61.70;;;;;;5011148;28;20111;-46
2023/06/08 04:24:13;;;;;;;9.48;7.03;;;18.60;61.90;;;;;;5007812;28;20045;-49
2023/06/08 04:26:40;;;;;;;11.57;7.57;;;18.60;61.90;;;;;;5006009;28;20557;-49
2023/06/08 04:29:09;;;;;;;10.55;7.45;;;18.60;62.00;;;;;;5012683;28;20053;-49
2023/06/08 04:31:39;;;;;;;9.25;7.20;;;18.50;62.10;;;;;;5012048;28;20041;-49
2023/06/08 04:34:11;;;;;;;11.60;8.55;;;18.60;62.20;;;;;;5010549;28;20504;-49
2023/06/08 04:36:42;;;;;;;11.50;8.55;;;18.60;62.20;;;;;;5020149;28;20095;-48
2023/06/08 04:39:09;;;;;;;12.43;9.30;;;18.60;62.30;;;;;;5012471;28;20057;-49
2023/06/08 04:41:55;;;;;;;11.02;7.45;;;18.60;62.30;;;;;;5011583;28;20471;-48
2023/06/08 04:44:31;;;;;;;9.13;7.95;;;18.60;62.20;;;;;;5008440;28;20066;-48
2023/06/08 04:46:59;;;;;;;12.15;8.45;;;18.60;62.30;;;;;;5011689;28;20108;-49
2023/06/08 04:49:31;;;;;;;9.68;7.70;;;18.70;62.50;;;;;;5011874;28;20061;-48
2023/06/08 04:52:01;;;;;;;7.32;6.63;;;18.70;62.60;;;;;;5008176;28;20585;-48
2023/06/08 04:54:30;;;;;;;10.73;7.68;;;18.70;62.40;;;;;;5005445;28;20049;-49
2023/06/08 04:56:59;;;;;;;10.65;7.13;;;18.70;62.50;;;;;;5011643;28;20041;-48
2023/06/08 04:59:26;;;;;;;10.70;7.80;;;18.80;62.40;;;;;;5011153;28;20046;-49
2023/06/08 05:01:54;;;;;;;11.27;8.45;;;18.80;62.30;;;;;;5007593;28;20081;-48
2023/06/08 05:04:25;;;;;;;12.40;8.02;;;18.80;62.40;;;;;;5011228;28;20499;-49
2023/06/08 05:06:53;;;;;;;12.63;7.50;;;18.90;62.50;;;;;;5011573;28;20060;-49
2023/06/08 05:09:27;;;;;;;10.20;7.80;;;18.90;62.10;;;;;;5012864;28;20076;-47
2023/06/08 05:11:58;;;;;;;12.32;8.50;;;18.90;62.10;;;;;;5007463;28;20410;-49
2023/06/08 05:14:29;;;;;;;9.23;6.97;;;18.90;62.20;;;;;;5010776;28;20406;-49
2023/06/08 05:16:57;;;;;;;11.98;8.48;;;19.00;62.00;;;;;;5012733;28;20044;-48
2023/06/08 05:19:24;;;;;;;10.35;7.47;;;19.00;62.00;;;;;;5008886;28;20108;-45
2023/06/08 05:21:53;;;;;;;11.77;8.13;;;19.00;61.70;;;;;;5011364;28;20096;-48
2023/06/08 05:24:20;;;;;;;12.07;8.13;;;19.10;61.80;;;;;;5007161;28;20043;-48
2023/06/08 05:26:50;;;;;;;10.38;8.38;;;19.10;61.80;;;;;;5008975;28;20038;-49
2023/06/08 05:29:19;;;;;;;9.82;7.93;;;19.10;61.70;;;;;;5012312;28;20050;-45
2023/06/08 05:31:46;;;;;;;8.77;7.55;;;19.10;61.40;;;;;;5012466;28;20037;-49
2023/06/08 05:34:12;;;;;;;11.07;7.78;;;19.20;61.30;;;;;;5009176;28;20457;-47
2023/06/08 05:36:42;;;;;;;11.15;8.05;;;19.20;61.50;;;;;;5002937;28;20815;-49
2023/06/08 05:39:09;;;;;;;14.02;8.32;;;19.20;61.20;;;;;;5012504;28;20042;-48
2023/06/08 05:41:35;;;;;;;11.65;8.73;;;19.20;61.10;;;;;;5011786;28;20116;-49
2023/06/08 05:44:02;;;;;;;13.38;8.63;;;19.30;60.90;;;;;;5006666;28;20128;-49
2023/06/08 05:46:31;;;;;;;11.23;8.70;;;19.30;60.80;;;;;;5011945;28;20050;-49
2023/06/08 05:48:58;;;;;;;12.77;8.27;;;19.30;60.90;;;;;;5012149;28;20104;-49
2023/06/08 05:51:28;;;;;;;14.63;9.13;;;19.30;60.90;;;;;;5011759;28;20108;-47
2023/06/08 05:53:55;;;;;;;10.73;8.48;;;19.40;60.90;;;;;;5005070;28;20457;-49
2023/06/08 05:56:22;;;;;;;11.75;8.60;;;19.40;60.80;;;;;;5008654;28;20042;-48
2023/06/08 05:58:51;;;;;;;11.23;8.38;;;19.40;61.00;;;;;;5012020;28;20556;-47
2023/06/08 06:01:20;;;;;;;14.85;9.82;;;19.50;61.00;;;;;;5009350;28;20073;-48
2023/06/08 06:03:47;;;;;;;13.70;9.35;;;19.50;60.80;;;;;;5009483;28;20046;-49
2023/06/08 06:06:19;;;;;;;17.33;9.52;;;19.50;60.90;;;;;;5011729;28;20104;-49
2023/06/08 06:08:45;;;;;;;17.77;9.65;;;19.60;61.00;;;;;;5012104;28;20120;-49
2023/06/08 06:11:13;;;;;;;13.35;8.80;;;19.60;60.70;;;;;;5005707;28;20046;-47
2023/06/08 06:13:40;;;;;;;13.35;9.65;;;19.60;60.60;;;;;;5012015;28;20042;-50
2023/06/08 06:16:07;;;;;;;14.60;9.27;;;19.60;60.60;;;;;;5011115;28;20398;-50
2023/06/08 06:18:33;;;;;;;12.73;8.93;;;19.60;60.60;;;;;;5010149;28;20056;-50
2023/06/08 06:21:04;;;;;;;12.57;9.68;;;19.70;60.70;;;;;;5010222;28;20049;-48
2023/06/08 06:23:33;;;;;;;13.57;8.82;;;19.70;60.40;;;;;;5006854;28;20073;-46
2023/06/08 06:26:03;;;;;;;14.70;9.45;;;19.70;60.50;;;;;;5007533;28;20241;-47
2023/06/08 06:28:32;;;;;;;11.82;8.73;;;19.80;60.50;;;;;;5011603;28;20065;-49
2023/06/08 06:31:04;;;;;;;14.88;9.25;;;19.80;60.10;;;;;;5011266;28;20050;-49
2023/06/08 06:33:33;;;;;;;13.73;9.95;;;19.80;60.90;;;;;;5008764;28;20041;-49
2023/06/08 06:36:00;;;;;;;14.43;9.63;;;19.80;60.70;;;;;;5007281;28;20658;-49
2023/06/08 06:38:30;;;;;;;13.80;8.70;;;19.90;60.70;;;;;;5011456;28;20077;-49
2023/06/08 06:40:56;;;;;;;13.18;9.68;;;19.90;60.40;;;;;;5010992;28;20077;-47
2023/06/08 06:43:24;;;;;;;14.20;9.27;;;19.90;60.30;;;;;;5006956;28;20066;-46
2023/06/08 06:46:05;;;;;;;11.15;8.23;;;20.00;60.40;;;;;;5009730;28;20042;-47
2023/06/08 06:48:37;;;;;;;16.08;9.45;;;20.00;60.30;;;;;;5011264;28;20525;-47
2023/06/08 06:51:06;;;;;;;15.18;8.90;;;20.10;60.50;;;;;;5007124;28;20133;-45
2023/06/08 06:53:35;;;;;;;11.70;9.27;;;20.10;60.50;;;;;;4993248;28;20692;-49
2023/06/08 06:56:10;;;;;;;11.85;9.82;;;20.10;60.20;;;;;;5010185;28;20521;-44
2023/06/08 06:58:37;;;;;;;11.52;9.45;;;20.20;60.30;;;;;;5011109;28;20093;-46
2023/06/08 07:01:03;;;;;;;12.27;9.35;;;20.20;60.40;;;;;;5004811;28;20041;-48
2023/06/08 07:03:30;;;;;;;11.55;9.55;;;20.20;60.40;;;;;;5010827;28;20038;-49
2023/06/08 07:06:01;;;;;;;13.63;9.63;;;20.20;60.90;;;;;;5010695;28;20046;-50
2023/06/08 07:08:28;;;;;;;11.70;9.40;;;20.30;60.30;;;;;;5011016;28;20074;-50
2023/06/08 07:10:57;;;;;;;11.73;9.45;;;20.30;60.20;;;;;;5005640;28;20042;-48
2023/06/08 07:13:28;;;;;;;13.20;9.80;;;20.30;60.30;;;;;;5010985;28;20061;-49
2023/06/08 07:15:56;;;;;;;12.40;9.43;;;20.40;60.40;;;;;;5010381;28;20125;-49
2023/06/08 07:18:24;;;;;;;12.93;9.82;;;20.40;60.00;;;;;;5008656;28;20053;-49
2023/06/08 07:20:53;;;;;;;12.88;9.73;;;20.40;60.00;;;;;;5010216;28;20076;-45
2023/06/08 07:23:20;;;;;;;14.55;9.68;;;20.50;60.00;;;;;;5009592;28;20080;-48
2023/06/08 07:26:08;;;;;;;15.85;10.43;;;20.60;60.10;;;;;;5006856;28;20777;-49
2023/06/08 07:28:55;;;;;;;11.77;9.63;;;20.60;59.70;;;;;;5010523;28;20056;-48
2023/06/08 07:31:27;;;;;;;11.20;9.20;;;20.60;59.60;;;;;;5008133;28;20417;-47
2023/06/08 07:33:55;;;;;;;11.95;9.75;;;20.70;60.00;;;;;;5008704;28;20130;-47
2023/06/08 07:36:28;;;;;;;16.00;9.95;;;20.70;59.90;;;;;;5004306;28;20682;-45
2023/06/08 07:38:58;;;;;;;10.60;9.32;;;20.80;59.80;;;;;;5010840;28;20457;-48
2023/06/08 07:41:26;;;;;;;14.18;9.35;;;20.80;59.70;;;;;;5009949;28;20149;-46
2023/06/08 07:43:52;;;;;;;12.48;10.85;;;20.80;59.50;;;;;;5007405;28;20522;-46
2023/06/08 07:46:21;;;;;;;14.73;10.40;;;20.90;59.70;;;;;;5014197;28;20053;-49
2023/06/08 07:48:49;;;;;;;18.48;9.40;;;21.00;59.40;;;;;;5014499;28;20050;-49
2023/06/08 07:51:22;;;;;;;11.07;9.75;;;21.00;59.50;;;;;;5014497;28;20100;-45
2023/06/08 07:53:53;;;;;;;16.48;9.50;;;21.00;59.40;;;;;;5006618;28;20057;-46
2023/06/08 07:56:22;;;;;;;13.77;9.25;;;21.10;59.30;;;;;;5011032;28;20048;-46
2023/06/08 07:58:49;;;;;;;14.25;10.23;;;21.10;59.40;;;;;;5014482;28;20102;-46
2023/06/08 08:01:17;;;;;;;12.60;9.30;;;21.20;59.40;;;;;;5012652;28;20050;-47
2023/06/08 08:03:44;;;;;;;11.75;8.43;;;21.20;59.60;;;;;;5011486;28;20052;-47
2023/06/08 08:06:16;;;;;;;12.00;9.45;;;21.20;59.50;;;;;;5013548;28;20520;-49
2023/06/08 08:08:42;;;;;;;11.68;9.45;;;21.30;59.50;;;;;;5014145;28;20053;-49
2023/06/08 08:11:11;;;;;;;16.08;10.18;;;21.30;59.50;;;;;;5011786;28;20070;-48
2023/06/08 08:13:48;;;;;;;12.07;9.45;;;21.40;59.00;;;;;;5012329;28;20461;-49
2023/06/08 08:16:15;;;;;;;12.38;9.85;;;21.40;59.00;;;;;;5013647;28;20465;-49
2023/06/08 08:18:46;;;;;;;14.23;9.70;;;21.50;59.10;;;;;;5013629;28;20049;-49
2023/06/08 08:21:16;;;;;;;11.57;9.23;;;21.50;59.20;;;;;;5007184;28;20046;-46
2023/06/08 08:23:42;;;;;;;13.27;9.70;;;21.60;58.80;;;;;;5011896;28;20066;-49
2023/06/08 08:26:09;;;;;;;11.93;8.70;;;21.60;58.80;;;;;;5009392;28;20057;-46
2023/06/08 08:28:41;;;;;;;12.82;8.82;;;21.70;59.30;;;;;;5013492;28;20046;-47
2023/06/08 08:31:07;;;;;;;14.48;10.68;;;21.70;59.00;;;;;;5005084;28;20046;-46
2023/06/08 08:33:37;;;;;;;11.95;9.43;;;21.80;58.80;;;;;;5013453;28;20100;-49
2023/06/08 08:36:10;;;;;;;12.07;9.20;;;21.80;58.80;;;;;;4993859;28;20147;-47
2023/06/08 08:38:40;;;;;;;12.93;9.65;;;21.90;58.30;;;;;;5009671;28;20046;-46
2023/06/08 08:41:09;;;;;;;9.63;8.65;;;21.90;58.30;;;;;;5013735;28;20386;-49
2023/06/08 08:43:55;;;;;;;13.27;9.75;;;22.00;59.00;;;;;;5013125;28;20121;-49
2023/06/08 08:46:23;;;;;;;13.52;8.05;;;22.10;59.40;;;;;;5010598;28;20503;-46
2023/06/08 08:48:58;;;;;;;12.63;9.40;;;22.10;58.80;;;;;;5005966;28;20121;-49
2023/06/08 08:51:30;;;;;;;13.93;9.80;;;22.20;58.60;;;;;;5013227;28;20057;-45
2023/06/08 08:54:00;;;;;;;10.93;9.40;;;22.20;58.10;;;;;;5002310;28;20046;-46
2023/06/08 08:56:30;;;;;;;12.00;9.15;;;22.30;58.50;;;;;;5009500;28;20100;-46
2023/06/08 08:58:57;;;;;;;12.40;9.15;;;22.40;58.30;;;;;;5013385;28;20046;-46
2023/06/08 09:01:25;;;;;;;14.30;10.38;;;22.40;58.10;;;;;;5010723;28;20516;-49
2023/06/08 09:03:54;;;;;;;11.75;8.88;;;22.50;58.10;;;;;;5010555;28;20521;-45
2023/06/08 09:06:23;;;;;;;10.25;8.95;;;22.50;58.30;;;;;;5012691;28;20522;-46
2023/06/08 09:08:52;;;;;;;10.63;8.77;;;22.50;57.70;;;;;;5013012;28;20072;-45
2023/06/08 09:11:21;;;;;;;13.52;9.38;;;22.60;57.70;;;;;;5010128;28;20046;-49
2023/06/08 09:14:04;;;;;;;15.45;9.55;;;22.70;57.70;;;;;;5012905;28;20044;-49
2023/06/08 09:16:41;;;;;;;12.68;8.60;;;22.70;57.40;;;;;;5011187;28;20069;-47
2023/06/08 09:19:08;;;;;;;11.82;9.23;;;22.80;57.40;;;;;;5008797;28;20038;-44
2023/06/08 09:21:43;;;;;;;15.77;9.83;;;22.80;57.20;;;;;;5010216;28;20044;-46
2023/06/08 09:24:20;;;;;;;11.07;9.77;;;23.00;57.40;;;;;;5007599;28;20040;-46
2023/06/08 09:26:50;;;;;;;10.07;8.38;;;23.00;57.40;;;;;;5011521;28;20117;-46
2023/06/08 09:29:37;;;;;;;15.23;8.88;;;23.00;57.60;;;;;;5012550;28;20033;-46
2023/06/08 09:32:09;;;;;;;11.07;9.25;;;23.10;56.80;;;;;;5012724;28;20030;-46
2023/06/08 09:34:58;;;;;;;12.55;9.15;;;23.20;56.70;;;;;;5006672;28;20419;-46
2023/06/08 09:37:36;;;;;;;15.05;9.90;;;23.30;56.90;;;;;;5012210;28;20564;-45
2023/06/08 09:40:09;;;;;;;19.42;10.10;;;23.30;56.80;;;;;;5012653;28;20471;-48
2023/06/08 09:42:50;;;;;;;13.93;10.02;;;23.40;56.50;;;;;;5012330;28;20402;-44
2023/06/08 09:45:18;;;;;;;11.25;10.00;;;23.50;56.40;;;;;;5006066;28;20033;-48
2023/06/08 09:47:47;;;;;;;14.10;8.93;;;23.50;56.40;;;;;;5012310;28;20073;-45
2023/06/08 09:50:14;;;;;;;11.10;9.50;;;23.50;56.60;;;;;;5012175;28;20052;-49
2023/06/08 09:52:47;;;;;;;10.93;9.85;;;23.50;56.60;;;;;;5005312;28;20740;-46
2023/06/08 09:55:18;;;;;;;14.00;9.50;;;23.60;56.70;;;;;;5004657;28;20045;-46
2023/06/08 09:57:47;;;;;;;11.30;9.27;;;23.70;56.20;;;;;;5011657;28;20037;-47
2023/06/08 10:00:23;;;;;;;15.10;9.23;;;23.70;55.80;;;;;;5012058;28;20058;-49
2023/06/08 10:03:14;;;;;;;14.77;10.38;;;23.70;55.30;;;;;;5009889;28;20042;-48
2023/06/08 10:05:45;;;;;;;11.77;8.48;;;23.80;55.70;;;;;;5008919;28;20046;-45
2023/06/08 10:08:26;;;;;;;9.35;8.07;;;23.80;55.30;;;;;;5011201;28;20077;-48
2023/06/08 10:10:55;;;;;;;11.32;8.50;;;23.90;54.60;;;;;;5010235;28;20465;-45
2023/06/08 10:13:24;;;;;;;13.98;8.52;;;24.00;55.50;;;;;;5007919;28;20049;-48
2023/06/08 10:15:53;;;;;;;14.63;9.30;;;24.00;55.40;;;;;;5010442;28;20589;-45
2023/06/08 10:18:33;;;;;;;10.40;8.93;;;24.10;55.80;;;;;;5011430;28;20045;-50
2023/06/08 10:21:03;;;;;;;9.30;8.18;;;24.10;55.70;;;;;;5003858;28;20092;-46
2023/06/08 10:23:30;;;;;;;9.13;8.23;;;24.20;54.90;;;;;;5003701;28;20038;-48
2023/06/08 10:26:01;;;;;;;11.85;9.13;;;24.30;54.70;;;;;;5005334;28;20760;-47
2023/06/08 10:28:28;;;;;;;10.23;8.75;;;24.40;55.00;;;;;;5011902;28;20136;-49
2023/06/08 10:30:55;;;;;;;12.07;8.82;;;24.50;54.90;;;;;;5011265;28;20457;-47
2023/06/08 10:33:25;;;;;;;10.52;8.50;;;24.50;54.70;;;;;;5011675;28;20399;-47
2023/06/08 10:36:10;;;;;;;11.77;9.73;;;24.60;54.50;;;;;;5005909;28;20073;-49
2023/06/08 10:38:57;;;;;;;10.40;9.27;;;24.70;54.00;;;;;;5011194;28;20125;-45
2023/06/08 10:41:53;;;;;;;11.27;10.07;;;24.70;53.40;;;;;;5011360;28;20061;-49
2023/06/08 10:44:29;;;;;;;10.05;8.88;;;24.80;54.10;;;;;;5005649;28;20041;-46
2023/06/08 10:47:01;;;;;;;9.15;8.25;;;24.80;53.60;;;;;;5010987;28;20065;-45
2023/06/08 10:49:36;;;;;;;8.88;7.97;;;24.80;53.70;;;;;;5011146;28;20056;-46
2023/06/08 10:52:16;;;;;;;10.93;7.95;;;24.90;53.80;;;;;;5009141;28;20046;-48
2023/06/08 10:55:06;;;;;;;12.23;8.00;;;24.90;53.40;;;;;;5005356;28;20109;-46
2023/06/08 10:57:43;;;;;;;14.15;9.20;;;25.00;53.00;;;;;;5011027;28;20041;-48
2023/06/08 11:00:22;;;;;;;10.25;8.48;;;25.10;52.70;;;;;;5004431;28;20088;-49
2023/06/08 11:02:49;;;;;;;9.50;8.48;;;25.20;52.20;;;;;;5010076;28;20449;-46
2023/06/08 11:05:20;;;;;;;9.57;8.57;;;25.20;52.70;;;;;;5006678;28;20089;-46
2023/06/08 11:07:48;;;;;;;9.60;8.57;;;25.30;52.60;;;;;;5010717;28;20053;-45
2023/06/08 11:10:22;;;;;;;11.70;8.90;;;25.40;51.70;;;;;;5008597;28;20052;-46
2023/06/08 11:13:02;;;;;;;10.00;9.00;;;25.40;52.00;;;;;;5010044;28;20052;-45
2023/06/08 11:15:33;;;;;;;10.70;7.78;;;25.50;52.60;;;;;;5010861;28;20109;-46
2023/06/08 11:18:07;;;;;;;9.90;8.77;;;25.60;52.50;;;;;;5010302;28;20041;-47
2023/06/08 11:20:37;;;;;;;9.93;8.95;;;25.60;51.80;;;;;;5004051;28;20056;-49
2023/06/08 11:23:12;;;;;;;10.07;7.80;;;25.70;51.70;;;;;;5003250;28;20045;-46
2023/06/08 11:25:47;;;;;;;11.35;8.55;;;25.80;51.50;;;;;;5002552;28;20100;-48
2023/06/08 11:28:13;;;;;;;9.70;8.38;;;25.90;51.50;;;;;;5010802;28;20221;-47
2023/06/08 11:30:43;;;;;;;9.60;8.43;;;25.90;51.40;;;;;;5010277;28;20069;-45
2023/06/08 11:33:21;;;;;;;11.95;8.98;;;26.00;51.60;;;;;;5009725;28;20117;-46
2023/06/08 11:35:53;;;;;;;12.15;9.95;;;26.20;51.50;;;;;;5005947;28;20111;-45
2023/06/08 11:38:23;;;;;;;8.27;7.47;;;26.20;50.80;;;;;;5010931;28;20045;-46
2023/06/08 11:40:52;;;;;;;10.80;7.70;;;26.30;50.90;;;;;;5009266;28;20042;-46
2023/06/08 11:43:21;;;;;;;7.22;6.53;;;26.30;50.90;;;;;;5006628;28;20044;-50
2023/06/08 11:45:51;;;;;;;10.63;7.80;;;26.40;51.10;;;;;;5008503;28;20057;-45
2023/06/08 11:48:22;;;;;;;12.93;9.80;;;26.50;51.20;;;;;;5010672;28;20042;-45
2023/06/08 11:50:49;;;;;;;9.63;8.35;;;26.60;50.10;;;;;;5008269;28;20050;-46
2023/06/08 11:53:23;;;;;;;8.85;7.95;;;26.70;50.70;;;;;;5004835;28;20069;-46
2023/06/08 11:55:53;;;;;;;10.75;8.00;;;26.80;50.70;;;;;;5008303;28;20042;-49
2023/06/08 11:58:29;;;;;;;12.68;8.60;;;26.80;50.20;;;;;;5010492;28;20041;-49
2023/06/08 12:01:04;;;;;;;12.68;8.23;;;27.00;50.70;;;;;;5010194;28;20042;-45
2023/06/08 12:03:47;;;;;;;9.63;8.55;;;27.10;49.70;;;;;;5007077;28;20045;-48
2023/06/08 12:06:24;;;;;;;8.95;8.05;;;27.20;49.20;;;;;;5005356;28;20042;-47
2023/06/08 12:08:58;;;;;;;11.90;8.40;;;27.30;49.50;;;;;;5009123;28;20038;-47
2023/06/08 12:11:27;;;;;;;8.98;8.00;;;27.40;48.90;;;;;;5010327;28;20070;-48
2023/06/08 12:13:59;;;;;;;10.23;8.55;;;27.40;49.40;;;;;;5004304;28;20050;-46
2023/06/08 12:16:42;;;;;;;8.95;7.97;;;27.50;49.10;;;;;;5009881;28;20081;-46
2023/06/08 12:19:13;;;;;;;9.07;8.15;;;27.70;48.70;;;;;;5010438;28;20048;-46
2023/06/08 12:21:41;;;;;;;10.70;7.68;;;27.70;48.70;;;;;;5006196;28;20038;-47
2023/06/08 12:24:22;;;;;;;10.35;8.07;;;27.80;48.50;;;;;;4998759;28;20658;-46
2023/06/08 12:26:50;;;;;;;9.13;8.25;;;28.00;47.90;;;;;;5007998;28;20045;-50
2023/06/08 12:29:18;;;;;;;11.60;8.40;;;28.10;47.70;;;;;;5008728;28;20062;-46
2023/06/08 12:31:48;;;;;;;9.40;8.50;;;28.20;47.70;;;;;;5008781;28;20053;-48
2023/06/08 12:34:15;;;;;;;9.32;8.35;;;28.30;47.30;;;;;;5012672;28;20119;-50
2023/06/08 12:36:50;;;;;;;9.30;7.85;;;28.40;47.20;;;;;;5013469;28;20053;-50
2023/06/08 12:39:19;;;;;;;11.07;7.68;;;28.60;47.00;;;;;;5010120;28;20042;-48
2023/06/08 12:41:46;;;;;;;9.18;8.27;;;28.70;46.40;;;;;;5013287;28;20033;-49
2023/06/08 12:44:19;;;;;;;12.98;8.65;;;28.80;46.40;;;;;;5013600;28;20053;-45
2023/06/08 12:46:47;;;;;;;11.77;7.53;;;28.90;46.40;;;;;;5007532;28;20043;-50
2023/06/08 12:49:13;;;;;;;8.07;7.15;;;28.90;46.10;;;;;;5013423;28;20034;-49
2023/06/08 12:51:40;;;;;;;8.63;7.85;;;29.00;45.60;;;;;;5013205;28;20467;-50
2023/06/08 12:54:11;;;;;;;9.63;7.95;;;29.10;46.00;;;;;;5010099;28;20046;-50
2023/06/08 12:56:42;;;;;;;8.85;7.53;;;29.20;45.90;;;;;;5011393;28;20415;-47
2023/06/08 12:59:12;;;;;;;8.60;7.15;;;29.30;45.20;;;;;;5013364;28;20045;-47
2023/06/08 13:01:51;;;;;;;9.45;8.15;;;29.50;45.00;;;;;;5013003;28;20554;-50